Crumpler, North Carolina
Current Conditions -  °F | °C
As of 9:55 PM on Tuesday 21 Oct 2014 (Local Time) from KGEV Reporting Station
Clear Clear  
Wind Chill: 35°   Ceiling: Unl
Heat Index: 43°   Visibility: 10mi
Dew Point: 33°   Wind: 15mph
Humidity: 69%   Direction: 320°NW
Pressure: 30.02"   Gusts: 24mph
Location:  36.5°N, 81.39°W
Report Text: KGEV 220155Z AUTO 32013G21KT 10SM CLR 06/01 A3002 RMK AO2 T00600007
Loading
Personal Weather Stations






























Interactive Weather Map
Tropical Storm Tracking
New forecast layout! Learn more

10-Day Weather Forecast

Advertisements
Track Severe Weather on mobile